createdAt,value
2023-05-13T00:01:54.674Z,9.30
2023-05-13T00:04:21.486Z,9.30
2023-05-13T00:06:49.097Z,9.40
2023-05-13T00:09:15.880Z,9.50
2023-05-13T00:11:42.586Z,9.60
2023-05-13T00:14:10.745Z,9.70
2023-05-13T00:16:37.874Z,9.70
2023-05-13T00:19:04.723Z,9.70
2023-05-13T00:21:32.062Z,9.80
2023-05-13T00:23:58.768Z,9.90
2023-05-13T00:26:25.924Z,9.90
2023-05-13T00:28:52.668Z,9.90
2023-05-13T00:31:20.699Z,9.90
2023-05-13T00:33:47.587Z,9.90
2023-05-13T00:36:14.388Z,9.90
2023-05-13T00:38:41.273Z,9.90
2023-05-13T00:41:07.997Z,9.80
2023-05-13T00:43:34.698Z,9.70
2023-05-13T00:46:01.606Z,9.60
2023-05-13T00:48:28.358Z,9.60
2023-05-13T00:50:55.802Z,9.70
2023-05-13T00:53:22.606Z,9.70
2023-05-13T00:55:49.483Z,9.80
2023-05-13T00:58:17.849Z,9.80
2023-05-13T01:01:00.848Z,9.80
2023-05-13T01:03:42.557Z,9.80
2023-05-13T01:06:16.909Z,9.80
2023-05-13T01:09:03.954Z,9.70
2023-05-13T01:11:39.538Z,9.60
2023-05-13T01:14:23.233Z,9.60
2023-05-13T01:16:56.071Z,9.60
2023-05-13T01:19:44.355Z,9.50
2023-05-13T01:22:11.179Z,9.40
2023-05-13T01:24:38.279Z,9.30
2023-05-13T01:27:05.843Z,9.20
2023-05-13T01:29:32.961Z,9.10
2023-05-13T01:32:01.002Z,9.10
2023-05-13T01:34:29.585Z,9.10
2023-05-13T01:36:56.439Z,9.00
2023-05-13T01:39:24.370Z,8.90
2023-05-13T01:41:51.328Z,8.80
2023-05-13T01:44:18.121Z,8.80
2023-05-13T01:46:45.464Z,8.70
2023-05-13T01:49:12.327Z,8.60
2023-05-13T01:51:40.146Z,8.60
2023-05-13T01:54:06.919Z,8.60
2023-05-13T01:56:34.022Z,8.60
2023-05-13T01:59:00.914Z,8.60
2023-05-13T02:01:27.788Z,8.60
2023-05-13T02:03:54.628Z,8.60
2023-05-13T02:06:21.393Z,8.50
2023-05-13T02:08:48.232Z,8.50
2023-05-13T02:11:14.948Z,8.50
2023-05-13T02:13:41.664Z,8.50
2023-05-13T02:16:08.443Z,8.50
2023-05-13T02:18:35.292Z,8.50
2023-05-13T02:21:02.059Z,8.50
2023-05-13T02:23:28.785Z,8.50
2023-05-13T02:25:55.660Z,8.50
2023-05-13T02:28:22.381Z,8.50
2023-05-13T02:30:49.137Z,8.60
2023-05-13T02:33:15.928Z,8.60
2023-05-13T02:35:42.756Z,8.70
2023-05-13T02:38:10.274Z,8.80
2023-05-13T02:40:37.458Z,8.80
2023-05-13T02:43:04.454Z,8.80
2023-05-13T02:45:31.222Z,8.70
2023-05-13T02:47:58.016Z,8.60
2023-05-13T02:50:24.882Z,8.60
2023-05-13T02:52:51.840Z,8.60
2023-05-13T02:55:18.749Z,8.50
2023-05-13T02:57:45.628Z,8.50
2023-05-13T03:00:13.129Z,8.50
2023-05-13T03:02:40.022Z,8.60
2023-05-13T03:05:07.395Z,8.60
2023-05-13T03:07:34.760Z,8.60
2023-05-13T03:10:01.481Z,8.60
2023-05-13T03:12:28.554Z,8.60
2023-05-13T03:14:55.269Z,8.60
2023-05-13T03:17:22.051Z,8.70
2023-05-13T03:19:48.883Z,8.70
2023-05-13T03:22:15.668Z,8.80
2023-05-13T03:24:43.103Z,8.80
2023-05-13T03:27:10.015Z,8.80
2023-05-13T03:29:36.779Z,8.70
2023-05-13T03:32:06.360Z,8.80
2023-05-13T03:34:36.055Z,8.80
2023-05-13T03:37:02.768Z,8.80
2023-05-13T03:39:29.872Z,8.90
2023-05-13T03:41:56.596Z,9.00
2023-05-13T03:44:23.320Z,9.10
2023-05-13T03:46:50.087Z,9.10
2023-05-13T03:49:18.867Z,9.10
2023-05-13T03:51:46.890Z,9.20
2023-05-13T03:54:13.639Z,9.20
2023-05-13T03:56:40.485Z,9.20
2023-05-13T03:59:07.220Z,9.20
2023-05-13T04:01:35.888Z,9.20
2023-05-13T04:04:02.613Z,9.20
2023-05-13T04:06:31.647Z,9.20
2023-05-13T04:08:58.437Z,9.40
2023-05-13T04:11:25.812Z,9.40
2023-05-13T04:13:52.551Z,9.40
2023-05-13T04:16:19.321Z,9.50
2023-05-13T04:18:46.130Z,9.60
2023-05-13T04:21:12.867Z,9.60
2023-05-13T04:23:39.613Z,9.70
2023-05-13T04:26:06.412Z,9.80
2023-05-13T04:28:33.152Z,9.90
2023-05-13T04:30:59.886Z,10.00
2023-05-13T04:33:27.158Z,10.20
2023-05-13T04:35:53.974Z,10.20
2023-05-13T04:38:20.799Z,10.30
2023-05-13T04:40:47.873Z,10.20
2023-05-13T04:43:14.620Z,10.20
2023-05-13T04:45:41.385Z,10.30
2023-05-13T04:48:08.544Z,10.30
2023-05-13T04:50:35.473Z,10.30
2023-05-13T04:53:02.746Z,10.40
2023-05-13T04:55:29.436Z,10.60
2023-05-13T04:57:56.181Z,10.60
2023-05-13T05:00:23.805Z,10.70
2023-05-13T05:02:51.692Z,10.70
2023-05-13T05:05:18.791Z,10.80
2023-05-13T05:07:45.659Z,10.80
2023-05-13T05:10:12.413Z,10.80
2023-05-13T05:12:39.996Z,10.70
2023-05-13T05:15:11.319Z,10.60
2023-05-13T05:17:38.556Z,10.60
2023-05-13T05:20:05.978Z,10.60
2023-05-13T05:22:35.138Z,10.70
2023-05-13T05:25:02.075Z,10.80
2023-05-13T05:27:28.958Z,10.80
2023-05-13T05:29:55.964Z,10.90
2023-05-13T05:32:23.419Z,11.00
2023-05-13T05:34:50.344Z,11.10
2023-05-13T05:37:17.090Z,11.10
2023-05-13T05:39:43.781Z,11.20
2023-05-13T05:42:10.735Z,11.20
2023-05-13T05:44:37.480Z,11.30
2023-05-13T05:47:04.356Z,11.30
2023-05-13T05:49:31.088Z,11.40
2023-05-13T05:51:57.816Z,11.50
2023-05-13T05:54:24.490Z,11.70
2023-05-13T05:56:51.163Z,11.80
2023-05-13T05:59:17.890Z,11.90
2023-05-13T06:01:44.693Z,11.90
2023-05-13T06:04:11.527Z,12.10
2023-05-13T06:06:40.264Z,12.10
2023-05-13T06:09:07.024Z,12.20
2023-05-13T06:11:33.782Z,12.20
2023-05-13T06:14:00.713Z,12.30
2023-05-13T06:16:27.590Z,12.30
2023-05-13T06:18:54.462Z,12.30
2023-05-13T06:21:21.262Z,12.40
2023-05-13T06:23:48.007Z,12.50
2023-05-13T06:26:14.805Z,12.50
2023-05-13T06:28:41.592Z,12.60
2023-05-13T06:31:08.334Z,12.70
2023-05-13T06:33:35.107Z,12.70
2023-05-13T06:36:01.957Z,12.80
2023-05-13T06:38:28.681Z,13.10
2023-05-13T06:40:55.442Z,13.30
2023-05-13T06:43:22.211Z,13.50
2023-05-13T06:45:49.084Z,13.60
2023-05-13T06:48:16.069Z,13.70
2023-05-13T06:50:42.873Z,13.80
2023-05-13T06:53:11.706Z,13.90
2023-05-13T06:55:41.826Z,14.00
2023-05-13T06:58:10.100Z,14.10
2023-05-13T07:00:38.593Z,14.10
2023-05-13T07:03:06.778Z,14.30
2023-05-13T07:05:34.628Z,14.40
2023-05-13T07:08:06.580Z,14.40
2023-05-13T07:10:34.198Z,14.50
2023-05-13T07:13:02.344Z,14.50
2023-05-13T07:15:29.096Z,14.50
2023-05-13T07:17:55.892Z,14.50
2023-05-13T07:20:23.419Z,14.60
2023-05-13T07:22:52.198Z,14.50
2023-05-13T07:25:19.384Z,14.40
2023-05-13T07:27:46.161Z,14.50
2023-05-13T07:30:13.707Z,14.60
2023-05-13T07:32:40.877Z,14.50
2023-05-13T07:35:08.887Z,14.40
2023-05-13T07:37:36.863Z,14.20
2023-05-13T07:40:05.853Z,14.10
2023-05-13T07:42:33.089Z,14.10
2023-05-13T07:44:59.952Z,14.00
2023-05-13T07:47:28.896Z,14.10
2023-05-13T07:49:55.825Z,14.40
2023-05-13T07:52:22.651Z,14.40
2023-05-13T07:54:49.677Z,14.60
2023-05-13T07:57:16.416Z,14.70
2023-05-13T07:59:44.739Z,15.00
2023-05-13T08:02:12.687Z,15.20
2023-05-13T08:04:39.685Z,15.30
2023-05-13T08:07:06.529Z,15.40
2023-05-13T08:09:33.358Z,15.40
2023-05-13T08:12:00.487Z,15.40
2023-05-13T08:14:28.507Z,15.50
2023-05-13T08:16:55.665Z,15.60
2023-05-13T08:19:22.555Z,15.70
2023-05-13T08:21:49.353Z,15.80
2023-05-13T08:24:16.082Z,16.00
2023-05-13T08:26:42.828Z,16.00
2023-05-13T08:29:12.805Z,16.00
2023-05-13T08:31:39.627Z,16.10
2023-05-13T08:34:06.409Z,16.10
2023-05-13T08:36:33.809Z,16.20
2023-05-13T08:39:01.259Z,16.20
2023-05-13T08:41:31.619Z,16.10
2023-05-13T08:44:00.007Z,16.20
2023-05-13T08:46:28.917Z,16.10
2023-05-13T08:48:57.047Z,16.10
2023-05-13T08:51:24.230Z,16.20
2023-05-13T08:53:53.054Z,16.40
2023-05-13T08:56:19.880Z,16.50
2023-05-13T08:58:46.759Z,16.50
2023-05-13T09:01:13.880Z,16.50
2023-05-13T09:03:57.857Z,16.60
2023-05-13T09:06:24.576Z,16.60
2023-05-13T09:08:51.360Z,16.70
2023-05-13T09:11:19.420Z,16.90
2023-05-13T09:13:56.560Z,17.00
2023-05-13T09:16:24.019Z,17.20
2023-05-13T09:19:01.019Z,17.30
2023-05-13T09:21:31.800Z,17.30
2023-05-13T09:24:18.632Z,17.50
2023-05-13T09:26:46.311Z,17.60
2023-05-13T09:29:29.281Z,17.50
2023-05-13T09:32:01.421Z,17.40
2023-05-13T09:34:34.144Z,17.40
2023-05-13T09:37:04.328Z,17.40
2023-05-13T09:39:39.681Z,17.50
2023-05-13T09:42:14.911Z,17.50
2023-05-13T09:44:44.041Z,17.50
2023-05-13T09:47:15.067Z,17.40
2023-05-13T09:49:44.704Z,17.50
2023-05-13T09:52:12.047Z,17.80
2023-05-13T09:54:38.948Z,17.80
2023-05-13T09:57:06.146Z,17.90
2023-05-13T09:59:35.925Z,18.30
2023-05-13T10:02:06.693Z,18.40
2023-05-13T10:04:33.918Z,18.50
2023-05-13T10:07:03.824Z,18.50
2023-05-13T10:09:36.505Z,18.50
2023-05-13T10:12:07.423Z,18.50
2023-05-13T10:14:36.963Z,18.50
2023-05-13T10:17:05.216Z,18.60
2023-05-13T10:19:33.543Z,18.50
2023-05-13T10:22:01.935Z,18.40
2023-05-13T10:24:29.930Z,18.50
2023-05-13T10:26:57.986Z,18.60
2023-05-13T10:29:26.494Z,18.50
2023-05-13T10:31:54.446Z,18.80
2023-05-13T10:34:22.892Z,18.90
2023-05-13T10:37:25.440Z,19.10
2023-05-13T10:40:29.775Z,19.40
2023-05-13T10:43:21.957Z,19.50
2023-05-13T10:46:06.476Z,19.70
2023-05-13T10:48:48.198Z,19.70
2023-05-13T10:51:17.131Z,19.50
2023-05-13T10:53:51.141Z,19.60
2023-05-13T10:56:27.667Z,19.80
2023-05-13T10:59:05.934Z,19.70
2023-05-13T11:01:44.410Z,20.00
2023-05-13T11:04:20.238Z,19.90
2023-05-13T11:06:49.696Z,20.10
2023-05-13T11:09:22.435Z,19.90
2023-05-13T11:11:54.509Z,20.00
2023-05-13T11:14:25.195Z,20.00
2023-05-13T11:17:01.530Z,20.00
2023-05-13T11:19:34.959Z,20.30
2023-05-13T11:22:23.725Z,20.50
2023-05-13T11:25:10.430Z,20.50
2023-05-13T11:27:42.275Z,21.00
2023-05-13T11:30:26.722Z,21.40
2023-05-13T11:32:58.295Z,21.00
2023-05-13T11:35:27.155Z,20.80
2023-05-13T11:37:57.582Z,20.40
2023-05-13T11:40:41.695Z,20.00
2023-05-13T11:43:10.107Z,19.50
2023-05-13T11:45:39.865Z,19.90
2023-05-13T11:48:23.570Z,20.20
2023-05-13T11:50:51.941Z,20.40
2023-05-13T11:53:22.509Z,20.60
2023-05-13T11:55:49.780Z,21.90
2023-05-13T11:58:16.548Z,22.60
2023-05-13T12:00:46.327Z,23.40
2023-05-13T12:03:15.759Z,24.30
2023-05-13T12:05:44.440Z,24.50
2023-05-13T12:08:11.559Z,23.50
2023-05-13T12:10:44.853Z,22.40
2023-05-13T12:13:12.208Z,21.60
2023-05-13T12:15:39.140Z,20.60
2023-05-13T12:18:06.753Z,20.40
2023-05-13T12:20:33.662Z,20.40
2023-05-13T12:23:01.502Z,21.00
2023-05-13T12:25:45.361Z,22.00
2023-05-13T12:28:23.751Z,23.00
2023-05-13T12:31:02.491Z,24.20
2023-05-13T12:33:49.280Z,24.70
2023-05-13T12:36:35.494Z,24.00
2023-05-13T12:39:07.546Z,23.60
2023-05-13T12:41:37.912Z,23.70
2023-05-13T12:44:16.832Z,23.80
2023-05-13T12:46:55.200Z,24.20
2023-05-13T12:49:22.341Z,24.30
2023-05-13T12:51:51.436Z,24.40
2023-05-13T12:54:18.297Z,24.50
2023-05-13T12:56:45.075Z,24.50
2023-05-13T12:59:13.304Z,24.30
2023-05-13T13:01:40.637Z,24.40
2023-05-13T13:04:07.887Z,23.60
2023-05-13T13:06:34.676Z,22.50
2023-05-13T13:09:01.468Z,21.70
2023-05-13T13:11:28.455Z,21.20
2023-05-13T13:13:55.212Z,21.00
2023-05-13T13:16:22.091Z,20.90
2023-05-13T13:18:50.924Z,21.90
2023-05-13T13:21:18.632Z,23.30
2023-05-13T13:23:45.370Z,24.40
2023-05-13T13:26:13.558Z,24.50
2023-05-13T13:28:40.300Z,23.70
2023-05-13T13:31:07.823Z,22.70
2023-05-13T13:33:37.059Z,22.10
2023-05-13T13:36:04.077Z,21.60
2023-05-13T13:38:30.819Z,21.00
2023-05-13T13:40:57.526Z,21.40
2023-05-13T13:43:24.258Z,22.70
2023-05-13T13:45:51.095Z,23.40
2023-05-13T13:48:17.830Z,22.90
2023-05-13T13:50:47.243Z,22.10
2023-05-13T13:53:14.490Z,21.50
2023-05-13T13:55:41.218Z,21.40
2023-05-13T13:58:08.091Z,22.10
2023-05-13T14:00:34.796Z,23.00
2023-05-13T14:03:02.846Z,23.60
2023-05-13T14:05:29.695Z,23.80
2023-05-13T14:07:56.493Z,23.40
2023-05-13T14:10:23.475Z,23.40
2023-05-13T14:12:51.838Z,23.70
2023-05-13T14:15:18.559Z,23.80
2023-05-13T14:17:45.399Z,23.90
2023-05-13T14:20:12.348Z,23.80
2023-05-13T14:22:39.251Z,23.30
2023-05-13T14:25:06.411Z,23.40
2023-05-13T14:27:36.267Z,23.20
2023-05-13T14:30:04.769Z,22.80
2023-05-13T14:32:31.586Z,22.70
2023-05-13T14:34:58.391Z,22.80
2023-05-13T14:37:25.190Z,22.20
2023-05-13T14:39:51.922Z,21.80
2023-05-13T14:42:19.272Z,21.50
2023-05-13T14:44:46.072Z,21.00
2023-05-13T14:47:12.868Z,21.00
2023-05-13T14:49:39.689Z,21.30
2023-05-13T14:52:06.499Z,21.60
2023-05-13T14:54:36.715Z,21.70
2023-05-13T14:57:05.780Z,22.00
2023-05-13T14:59:33.799Z,22.20
2023-05-13T15:02:03.976Z,22.00
2023-05-13T15:04:30.922Z,21.90
2023-05-13T15:06:58.246Z,22.00
2023-05-13T15:09:25.013Z,21.80
2023-05-13T15:11:52.866Z,22.10
2023-05-13T15:14:21.439Z,22.20
2023-05-13T15:16:50.304Z,22.20
2023-05-13T15:19:17.036Z,22.30
2023-05-13T15:21:43.762Z,22.30
2023-05-13T15:24:10.564Z,22.10
2023-05-13T15:26:37.317Z,21.90
2023-05-13T15:29:04.115Z,21.90
2023-05-13T15:31:31.723Z,21.70
2023-05-13T15:33:59.350Z,21.40
2023-05-13T15:36:26.085Z,20.60
2023-05-13T15:38:53.969Z,19.40
2023-05-13T15:41:21.553Z,18.30
2023-05-13T15:43:48.329Z,16.90
2023-05-13T15:46:15.115Z,16.10
2023-05-13T15:48:41.909Z,15.40
2023-05-13T15:51:10.957Z,14.80
2023-05-13T15:53:37.659Z,14.40
2023-05-13T15:56:04.497Z,14.20
2023-05-13T15:58:31.770Z,14.00
2023-05-13T16:00:58.600Z,13.90
2023-05-13T16:03:25.395Z,13.80
2023-05-13T16:05:52.799Z,13.70
2023-05-13T16:08:19.519Z,13.80
2023-05-13T16:10:46.345Z,13.80
2023-05-13T16:13:13.143Z,13.80
2023-05-13T16:15:41.446Z,13.80
2023-05-13T16:18:08.619Z,13.90
2023-05-13T16:20:35.426Z,14.00
2023-05-13T16:23:02.212Z,13.90
2023-05-13T16:25:29.067Z,13.80
2023-05-13T16:27:56.538Z,13.50
2023-05-13T16:30:23.809Z,13.40
2023-05-13T16:32:54.346Z,13.20
2023-05-13T16:35:22.285Z,13.20
2023-05-13T16:37:49.819Z,13.20
2023-05-13T16:40:16.877Z,13.30
2023-05-13T16:42:43.747Z,13.30
2023-05-13T16:45:10.995Z,13.50
2023-05-13T16:47:38.116Z,13.60
2023-05-13T16:50:06.895Z,13.90
2023-05-13T16:52:34.054Z,14.00
2023-05-13T16:55:00.808Z,14.20
2023-05-13T16:57:27.698Z,14.30
2023-05-13T16:59:54.445Z,14.40
2023-05-13T17:02:21.259Z,14.50
2023-05-13T17:04:48.069Z,14.40
2023-05-13T17:07:14.997Z,14.20
2023-05-13T17:09:41.698Z,14.10
2023-05-13T17:12:08.582Z,14.10
2023-05-13T17:14:35.292Z,14.00
2023-05-13T17:17:03.020Z,14.00
2023-05-13T17:19:30.344Z,13.90
2023-05-13T17:21:57.121Z,14.00
2023-05-13T17:24:23.870Z,13.90
2023-05-13T17:26:50.707Z,13.90
2023-05-13T17:29:17.441Z,13.90
2023-05-13T17:31:44.350Z,13.80
2023-05-13T17:34:11.185Z,13.80
2023-05-13T17:36:37.944Z,13.70
2023-05-13T17:39:04.902Z,13.70
2023-05-13T17:41:31.664Z,13.80
2023-05-13T17:43:58.374Z,13.70
2023-05-13T17:46:25.105Z,13.70
2023-05-13T17:48:52.006Z,13.70
2023-05-13T17:51:18.846Z,13.70
2023-05-13T17:53:45.561Z,13.70
2023-05-13T17:56:12.644Z,13.70
2023-05-13T17:58:39.461Z,13.70
2023-05-13T18:01:06.924Z,13.70
2023-05-13T18:03:34.783Z,13.80
2023-05-13T18:06:01.593Z,13.90
2023-05-13T18:08:28.418Z,13.90
2023-05-13T18:10:55.144Z,13.90
2023-05-13T18:13:22.057Z,13.90
2023-05-13T18:15:48.850Z,13.90
2023-05-13T18:18:17.439Z,13.80
2023-05-13T18:20:44.171Z,13.70
2023-05-13T18:23:10.926Z,13.60
2023-05-13T18:25:45.392Z,13.40
2023-05-13T18:28:21.616Z,13.30
2023-05-13T18:30:48.370Z,13.20
2023-05-13T18:33:15.160Z,13.10
2023-05-13T18:35:41.925Z,13.00
2023-05-13T18:38:08.677Z,12.80
2023-05-13T18:40:35.442Z,12.80
2023-05-13T18:43:02.133Z,12.70
2023-05-13T18:45:28.993Z,12.60
2023-05-13T18:47:55.822Z,12.60
2023-05-13T18:50:22.967Z,12.50
2023-05-13T18:52:51.361Z,12.40
2023-05-13T18:55:18.415Z,12.30
2023-05-13T18:57:45.394Z,12.20
2023-05-13T19:00:13.210Z,12.20
2023-05-13T19:02:40.181Z,12.00
2023-05-13T19:05:08.006Z,11.90
2023-05-13T19:07:34.762Z,11.90
2023-05-13T19:10:01.471Z,11.80
2023-05-13T19:12:28.240Z,11.70
2023-05-13T19:14:54.982Z,11.70
2023-05-13T19:17:21.781Z,11.60
2023-05-13T19:19:48.560Z,11.60
2023-05-13T19:22:15.362Z,11.50
2023-05-13T19:24:42.123Z,11.50
2023-05-13T19:27:09.198Z,11.40
2023-05-13T19:29:36.052Z,11.40
2023-05-13T19:32:02.827Z,11.40
2023-05-13T19:34:29.558Z,11.50
2023-05-13T19:36:56.328Z,11.50
2023-05-13T19:39:23.141Z,11.60
2023-05-13T19:41:49.963Z,11.50
2023-05-13T19:44:17.822Z,11.60
2023-05-13T19:46:44.640Z,11.50
2023-05-13T19:49:11.414Z,11.60
2023-05-13T19:51:38.246Z,11.60
2023-05-13T19:54:06.597Z,11.60
2023-05-13T19:56:33.384Z,11.60
2023-05-13T19:59:00.163Z,11.60
2023-05-13T20:01:26.979Z,11.70
2023-05-13T20:03:55.219Z,11.60
2023-05-13T20:06:22.185Z,11.70
2023-05-13T20:08:49.064Z,11.70
2023-05-13T20:11:18.415Z,11.70
2023-05-13T20:13:45.638Z,11.70
2023-05-13T20:16:12.497Z,11.70
2023-05-13T20:18:39.278Z,11.70
2023-05-13T20:21:06.186Z,11.70
2023-05-13T20:23:32.925Z,11.70
2023-05-13T20:25:59.677Z,11.70
2023-05-13T20:28:26.486Z,11.70
2023-05-13T20:30:53.506Z,11.70
2023-05-13T20:33:20.343Z,11.80
2023-05-13T20:35:47.337Z,11.80
2023-05-13T20:38:14.083Z,11.70
2023-05-13T20:40:41.250Z,11.70
2023-05-13T20:43:08.080Z,11.70
2023-05-13T20:45:38.908Z,11.70
2023-05-13T20:48:06.500Z,11.60
2023-05-13T20:50:33.241Z,11.50
2023-05-13T20:52:59.994Z,11.50
2023-05-13T20:55:26.778Z,11.40
2023-05-13T20:57:53.663Z,11.30
2023-05-13T21:00:20.659Z,11.20
2023-05-13T21:02:48.890Z,11.10
2023-05-13T21:05:16.444Z,11.00
2023-05-13T21:07:43.149Z,10.90
2023-05-13T21:10:10.108Z,10.90
2023-05-13T21:12:36.942Z,10.80
2023-05-13T21:15:03.958Z,10.70
2023-05-13T21:17:30.785Z,10.60
2023-05-13T21:19:57.522Z,10.50
2023-05-13T21:22:24.209Z,10.40
2023-05-13T21:24:50.949Z,10.30
2023-05-13T21:27:17.779Z,10.30
2023-05-13T21:29:44.582Z,10.20
2023-05-13T21:32:12.062Z,10.20
2023-05-13T21:34:38.818Z,10.10
2023-05-13T21:37:05.837Z,10.10
2023-05-13T21:39:32.560Z,10.00
2023-05-13T21:42:00.610Z,9.90
2023-05-13T21:44:28.883Z,9.80
2023-05-13T21:46:55.845Z,9.80
2023-05-13T21:49:22.612Z,9.70
2023-05-13T21:51:49.360Z,9.60
2023-05-13T21:54:16.184Z,9.60
2023-05-13T21:56:42.985Z,9.60
2023-05-13T21:59:09.709Z,9.50
2023-05-13T22:01:36.644Z,9.50
2023-05-13T22:04:03.606Z,9.50
2023-05-13T22:06:30.817Z,9.40
2023-05-13T22:08:57.721Z,9.50
2023-05-13T22:11:24.442Z,9.50
2023-05-13T22:13:51.171Z,9.50
2023-05-13T22:16:18.019Z,9.50
2023-05-13T22:18:44.997Z,9.50
2023-05-13T22:21:11.811Z,9.50
2023-05-13T22:23:38.552Z,9.60
2023-05-13T22:26:05.288Z,9.60
2023-05-13T22:28:32.020Z,9.60
2023-05-13T22:30:58.954Z,9.60
2023-05-13T22:33:25.860Z,9.50
2023-05-13T22:35:52.600Z,9.50
2023-05-13T22:38:19.333Z,9.50
2023-05-13T22:40:46.143Z,9.50
2023-05-13T22:43:12.857Z,9.50
2023-05-13T22:45:39.794Z,9.60
2023-05-13T22:48:06.757Z,9.50
2023-05-13T22:50:33.505Z,9.60
2023-05-13T22:53:01.252Z,9.60
2023-05-13T22:55:28.008Z,9.50
2023-05-13T22:57:54.822Z,9.50
2023-05-13T23:00:21.726Z,9.50
2023-05-13T23:02:48.866Z,9.50
2023-05-13T23:05:16.544Z,9.50
2023-05-13T23:07:43.401Z,9.50
2023-05-13T23:10:10.653Z,9.40
2023-05-13T23:12:37.698Z,9.60
2023-05-13T23:15:05.369Z,9.60
2023-05-13T23:17:32.138Z,9.60
2023-05-13T23:19:58.893Z,9.60
2023-05-13T23:22:25.695Z,9.60
2023-05-13T23:24:52.445Z,9.60
2023-05-13T23:27:19.260Z,9.60
2023-05-13T23:29:46.191Z,9.60
2023-05-13T23:32:12.981Z,9.60
2023-05-13T23:34:39.719Z,9.60
2023-05-13T23:37:06.500Z,9.60
2023-05-13T23:39:33.252Z,9.60
2023-05-13T23:42:00.073Z,9.60
2023-05-13T23:44:26.864Z,9.60
2023-05-13T23:46:53.617Z,9.60
2023-05-13T23:49:20.477Z,9.60
2023-05-13T23:51:47.198Z,9.60
2023-05-13T23:54:13.971Z,9.70
2023-05-13T23:56:40.934Z,9.70
2023-05-13T23:59:08.518Z,9.80
